Home > Products > Valid Products > TAF

000
FTUS41 KOKX 301100
TAFLGA
TAF
KLGA 301139Z 3012/3112 32007KT P6SM FEW040 SCT250
     FM301400 33009KT P6SM SCT040
     FM302100 32009KT P6SM BKN040
     FM310100 33007KT P6SM SCT040
     FM310900 01007KT P6SM BKN035=



000
FTUS41 KOKX 301100
TAFBDR
TAF
KBDR 301139Z 3012/3112 32006KT P6SM FEW040 SCT250
     FM301400 33008KT P6SM SCT040
     FM302100 31007KT P6SM SCT040
     FM310100 35004KT P6SM SCT040
     FM310900 01004KT P6SM BKN035=



000
FTUS41 KOKX 301100
TAFEWR
TAF
KEWR 301139Z 3012/3118 VRB05KT P6SM FEW040 SCT250
     FM301400 33007KT P6SM SCT040
     FM302100 31009KT P6SM BKN040
     FM310000 33006KT P6SM SCT040
     FM310900 01006KT P6SM BKN035
     FM311500 04006KT P6SM BKN035=



000
FTUS41 KOKX 301100
TAFSWF
TAF
KSWF 301139Z 3012/3118 VRB05KT P6SM FEW040
     FM302100 30007KT P6SM BKN040
     FM310100 VRB04KT P6SM SCT040
     FM311500 07005KT P6SM BKN035
      AMD NOT SKED=



000
FTUS41 KOKX 301100
TAFTEB
TAF
KTEB 301139Z 3012/3112 VRB04KT P6SM FEW040 SCT250
     FM301400 33007KT P6SM SCT040
     FM302100 31007KT P6SM BKN040
     FM310100 34004KT P6SM SCT040
     FM310900 36004KT P6SM BKN035=



000
FTUS41 KOKX 301100
TAFJFK
TAF
KJFK 301139Z 3012/3118 30007KT P6SM FEW040 SCT250
     FM301400 32009KT P6SM SCT040
     FM302100 30010KT P6SM BKN040
     FM310100 33007KT P6SM SCT040
     FM310900 01007KT P6SM BKN035
     FM311500 04007KT P6SM BKN035=



000
FTUS41 KOKX 301100
TAFGON
TAF
KGON 301139Z 3012/3112 32005KT P6SM FEW040 SCT250
     FM301400 32008KT P6SM SCT040
     FM302000 29007KT P6SM SCT040
     FM310100 36004KT P6SM SCT040
     FM310900 02004KT P6SM BKN035=



000
FTUS41 KOKX 301100
TAFISP
TAF
KISP 301139Z 3012/3112 32006KT P6SM FEW040 SCT250
     FM301400 33009KT P6SM SCT040
     FM302100 31007KT P6SM SCT040
     FM310100 34004KT P6SM SCT040
     FM310900 01004KT P6SM BKN035=



000
FTUS41 KOKX 300900 AAB
TAFEWR
TAF AMD
KEWR 300951Z 3010/3112 VRB05KT P6SM FEW040 SCT250
      TEMPO 3010/3011 1/2SM FG VV001
     FM301400 33007KT P6SM SCT040
     FM302100 31009KT P6SM BKN040
     FM310000 33006KT P6SM SCT040
     FM310900 01006KT P6SM BKN035=



000
FTUS41 KOKX 300900 AAB
TAFISP
TAF AMD
KISP 300951Z 3010/3106 32006KT P6SM FEW040 SCT250
      TEMPO 3010/3011 3/4SM BR
     FM301400 33009KT P6SM SCT040
     FM302100 31007KT P6SM SCT040
     FM310100 34004KT P6SM SCT040=



000
FTUS41 KOKX 300800 AAA
TAFBDR
TAF AMD
KBDR 300831Z 3009/3106 32006KT P6SM FEW040 SCT250
     FM301400 33008KT P6SM SCT040
     FM302100 31007KT P6SM SCT040
     FM310100 35004KT P6SM SCT040=



000
FTUS41 KOKX 300800 AAA
TAFTEB
TAF AMD
KTEB 300831Z 3009/3106 VRB04KT P6SM BCFG FEW040 SCT250
     FM301400 33007KT P6SM SCT040
     FM302100 31007KT P6SM BKN040
     FM310100 34004KT P6SM SCT040=



000
FTUS41 KOKX 300800 AAA
TAFGON
TAF AMD
KGON 300831Z 3009/3106 32005KT P6SM FEW040 SCT250
     FM301400 32008KT P6SM SCT040
     FM302000 29007KT P6SM SCT040
     FM310100 36004KT P6SM SCT040=



000
FTUS41 KOKX 300800 AAA
TAFJFK
TAF AMD
KJFK 300831Z 3009/3112 30007KT P6SM FEW040 SCT250
     FM301400 32009KT P6SM SCT040
     FM302100 30010KT P6SM BKN040
     FM310100 33007KT P6SM SCT040
     FM310900 01007KT P6SM BKN035=



000
FTUS41 KOKX 300800 AAA
TAFEWR
TAF AMD
KEWR 300831Z 3009/3112 VRB05KT P6SM FEW040 SCT250
     FM301400 33007KT P6SM SCT040
     FM302100 31009KT P6SM BKN040
     FM310000 33006KT P6SM SCT040
     FM310900 01006KT P6SM BKN035=



000
FTUS41 KOKX 300800 AAA
TAFSWF
TAF AMD
KSWF 300831Z 3009/3112 VRB05KT P6SM FEW040
      TEMPO 3009/3012 1/2SM FG
     FM302100 30007KT P6SM BKN040
     FM310100 VRB04KT P6SM SCT040
      AMD NOT SKED=



000
FTUS41 KOKX 300800 AAA
TAFLGA
TAF AMD
KLGA 300831Z 3009/3106 32007KT P6SM FEW040 SCT250
     FM301400 33009KT P6SM SCT040
     FM302100 32009KT P6SM BKN040
     FM310100 33007KT P6SM SCT040=



000
FTUS41 KOKX 300800 AAA
TAFISP
TAF AMD
KISP 300831Z 3009/3106 32006KT P6SM FEW040 SCT250
     FM301400 33009KT P6SM SCT040
     FM302100 31007KT P6SM SCT040
     FM310100 34004KT P6SM SCT040=



000
FTUS41 KOKX 300500
TAFSWF
TAF
KSWF 300523Z 3006/3112 VRB05KT P6SM FEW040
      TEMPO 3006/3010 1/2SM FG
     FM302100 30007KT P6SM BKN040
     FM310100 VRB04KT P6SM SCT040
      AMD NOT SKED=



000
FTUS41 KOKX 300500
TAFISP
TAF
KISP 300523Z 3006/3106 32006KT P6SM FEW040 SCT100
     FM301400 33009KT P6SM SCT040
     FM302100 31007KT P6SM SCT040
     FM310100 34004KT P6SM SCT040=



000
FTUS41 KOKX 300500
TAFLGA
TAF
KLGA 300523Z 3006/3106 32007KT P6SM FEW040 SCT250
     FM301400 33009KT P6SM SCT040
     FM302100 32009KT P6SM BKN040
     FM310100 33007KT P6SM SCT040=



000
FTUS41 KOKX 300500
TAFGON
TAF
KGON 300523Z 3006/3106 32005KT P6SM FEW040 SCT100
     FM301400 32008KT P6SM SCT040
     FM302000 29007KT P6SM SCT040
     FM310100 36004KT P6SM SCT040=



000
FTUS41 KOKX 300500
TAFEWR
TAF
KEWR 300523Z 3006/3112 VRB05KT P6SM FEW040 SCT250
     FM301400 33007KT P6SM SCT040
     FM302100 31009KT P6SM BKN040
     FM310000 33006KT P6SM SCT040
     FM310900 01006KT P6SM BKN035=



000
FTUS41 KOKX 300500
TAFTEB
TAF
KTEB 300523Z 3006/3106 VRB04KT P6SM BCFG FEW040 SCT250
     FM301400 33007KT P6SM SCT040
     FM302100 31007KT P6SM BKN040
     FM310100 34004KT P6SM SCT040=



000
FTUS41 KOKX 300500
TAFBDR
TAF
KBDR 300523Z 3006/3106 32006KT P6SM FEW040 SCT100
     FM301400 33008KT P6SM SCT040
     FM302100 31007KT P6SM SCT040
     FM310100 35004KT P6SM SCT040=



000
FTUS41 KOKX 300500
TAFJFK
TAF
KJFK 300523Z 3006/3112 30007KT P6SM FEW040 SCT250
     FM301400 32009KT P6SM SCT040
     FM302100 30010KT P6SM BKN040
     FM310100 33007KT P6SM SCT040
     FM310900 01007KT P6SM BKN035=



000
FTUS41 KOKX 300200 AAA
TAFTEB
TAF AMD
KTEB 300230Z 3003/3024 29005KT P6SM SCT070 BKN200
     FM300500 32004KT P6SM FEW070
     FM301400 33007KT P6SM SCT040
     FM302100 31007KT P6SM BKN040=



000
FTUS41 KOKX 300200 AAA
TAFGON
TAF AMD
KGON 300230Z 3003/3024 32005KT P6SM OVC050
     FM300400 30005KT P6SM BKN070 BKN200
     FM300700 32005KT P6SM FEW070
     FM301400 32008KT P6SM SCT040
     FM302000 29007KT P6SM SCT040=



000
FTUS41 KOKX 300200 AAA
TAFISP
TAF AMD
KISP 300230Z 3003/3024 29006KT P6SM BKN070 BKN200
     FM300600 32006KT P6SM FEW070
     FM301400 33009KT P6SM SCT040
     FM302100 31007KT P6SM SCT040=



000
FTUS41 KOKX 300200 AAA
TAFLGA
TAF AMD
KLGA 300230Z 3003/3024 29009KT P6SM SCT070 BKN200
     FM300500 32008KT P6SM FEW070
     FM301400 33009KT P6SM SCT040
     FM302100 30009KT P6SM BKN040=



000
FTUS41 KOKX 300200 AAA
TAFJFK
TAF AMD
KJFK 300230Z 3003/3106 28009KT P6SM SCT070 BKN200
     FM300600 32007KT P6SM FEW070
     FM301400 33009KT P6SM SCT040
     FM302100 30009KT P6SM BKN040
     FM310100 33007KT P6SM SCT040=



000
FTUS41 KOKX 300200 AAA
TAFBDR
TAF AMD
KBDR 300230Z 3003/3024 29006KT P6SM BKN070 BKN200
     FM300600 32006KT P6SM FEW070
     FM301400 33008KT P6SM SCT040
     FM302100 31007KT P6SM SCT040=



000
FTUS41 KOKX 300200 AAA
TAFSWF
TAF AMD
KSWF 300230Z 3003/3106 30005KT P6SM FEW080
     FM301400 30007KT P6SM SCT040
     FM302100 29007KT P6SM BKN040
      AMD NOT SKED=



000
FTUS41 KOKX 300200 AAA
TAFEWR
TAF AMD
KEWR 300230Z 3003/3106 28007KT P6SM SCT070 BKN200
     FM300500 31006KT P6SM FEW070
     FM301400 33007KT P6SM SCT040
     FM302100 30009KT P6SM BKN040
     FM310000 33007KT P6SM SCT040=



000
FTUS41 KOKX 292300
TAFGON
TAF
KGON 292336Z 3000/3024 31010KT P6SM OVC050
      TEMPO 3000/3003 5SM -SHRA
     FM300300 30005KT P6SM BKN070 BKN200
     FM300600 32005KT P6SM FEW070
     FM301400 32008KT P6SM SCT040
     FM302000 29007KT P6SM SCT040=



000
FTUS41 KOKX 292300
TAFJFK
TAF
KJFK 292336Z 3000/3106 28010KT P6SM BKN070 BKN200
     FM300500 32007KT P6SM FEW070
     FM301400 33009KT P6SM SCT040
     FM302100 30009KT P6SM BKN040
     FM310100 33007KT P6SM SCT040=



000
FTUS41 KOKX 292300
TAFISP
TAF
KISP 292336Z 3000/3024 31007KT P6SM OVC050
     FM300200 29005KT P6SM BKN070 BKN200
     FM300600 32006KT P6SM FEW070
     FM301400 33009KT P6SM SCT040
     FM302100 31007KT P6SM SCT040=



000
FTUS41 KOKX 292300
TAFLGA
TAF
KLGA 292336Z 3000/3024 29010KT P6SM BKN070 BKN200
     FM300500 32008KT P6SM FEW070
     FM301400 33009KT P6SM SCT040
     FM302100 30009KT P6SM BKN040=



000
FTUS41 KOKX 292300
TAFSWF
TAF
KSWF 292336Z 3000/3106 VRB03KT P6SM BKN080
     FM300200 30005KT P6SM FEW080
     FM301400 30007KT P6SM SCT040
     FM302100 29007KT P6SM BKN040
      AMD NOT SKED=



000
FTUS41 KOKX 292300
TAFEWR
TAF
KEWR 292336Z 3000/3106 29008KT P6SM BKN070 BKN200
     FM300500 31006KT P6SM FEW070
     FM301400 33007KT P6SM SCT040
     FM302100 30009KT P6SM BKN040
     FM310000 33007KT P6SM SCT040=



000
FTUS41 KOKX 292300
TAFBDR
TAF
KBDR 292336Z 3000/3024 31007KT P6SM OVC050
     FM300200 29005KT P6SM BKN070 BKN200
     FM300600 32006KT P6SM FEW070
     FM301400 33008KT P6SM SCT040
     FM302100 31007KT P6SM SCT040=



000
FTUS41 KOKX 292300
TAFTEB
TAF
KTEB 292336Z 3000/3024 29005KT P6SM BKN070 BKN200
     FM300500 32004KT P6SM FEW070
     FM301400 33007KT P6SM SCT040
     FM302100 31007KT P6SM BKN040=



000
FTUS41 KOKX 292200 AAB
TAFGON
TAF AMD
KGON 292202Z 2922/3018 31010KT P6SM OVC050
      TEMPO 3000/3003 5SM -SHRA
     FM300300 30005KT P6SM BKN070 BKN200
     FM300600 32005KT P6SM FEW070
     FM301400 32008KT P6SM SCT040=



000
FTUS41 KOKX 292100 AAB
TAFSWF
TAF AMD
KSWF 292158Z 2922/3024 VRB03KT P6SM SCT050 BKN080
     FM300200 30005KT P6SM FEW080
     FM301400 31008KT P6SM SCT040
     FM302100 33009KT P6SM BKN040
      AMD NOT SKED=



000
FTUS41 KOKX 292100 AAB
TAFBDR
TAF AMD
KBDR 292152Z 2922/3018 31010KT P6SM OVC050
      TEMPO 2923/3002 5SM -SHRA
     FM300200 29005KT P6SM BKN070 BKN200
     FM300600 32006KT P6SM FEW070
     FM301400 33008KT P6SM SCT040=



000
FTUS41 KOKX 292100 AAB
TAFISP
TAF AMD
KISP 292140Z 2922/3018 31012G18KT P6SM OVC050
      TEMPO 2923/3002 5SM -SHRA
     FM300200 29005KT P6SM BKN070 BKN200
     FM300600 32006KT P6SM FEW070
     FM301400 33009KT P6SM SCT040=



000
FTUS41 KOKX 292100 AAD
TAFJFK
TAF AMD
KJFK 292137Z 2922/3024 31012G18KT P6SM OVC050
      TEMPO 2922/2924 5SM -SHRA
     FM300000 28010KT P6SM BKN070 BKN200
     FM300600 32007KT P6SM FEW070
     FM301400 33009KT P6SM SCT040
     FM302100 30009KT P6SM BKN040=



000
FTUS41 KOKX 292100 AAB
TAFTEB
TAF AMD
KTEB 292130Z 2922/3018 30011KT P6SM FEW020 OVC050
      TEMPO 2922/2923 5SM -SHRA
     FM292300 29005KT P6SM BKN070 BKN200
     FM300500 32004KT P6SM FEW070
     FM301400 33007KT P6SM SCT040=



000
FTUS41 KOKX 292100 AAB
TAFEWR
TAF AMD
KEWR 292122Z 2921/3024 28012G19KT P6SM OVC050
      TEMPO 2921/2923 5SM -SHRA
     FM300000 29009KT P6SM BKN070 BKN200
     FM300500 31006KT P6SM FEW070
     FM301400 33007KT P6SM SCT040
     FM302100 30009KT P6SM BKN040=



000
FTUS41 KOKX 292100 AAC
TAFLGA
TAF AMD
KLGA 292119Z 2921/3018 30012G18KT P6SM OVC050
      TEMPO 2922/2924 5SM -SHRA
     FM300000 29010KT P6SM BKN070 BKN200
     FM300600 32008KT P6SM FEW070
     FM301400 33009KT P6SM SCT040=



000
FTUS41 KOKX 292100 AAC
TAFJFK
TAF AMD
KJFK 292116Z 2921/3024 29012G18KT P6SM OVC050
      TEMPO 2922/2924 5SM -SHRA
     FM300000 28010KT P6SM BKN070 BKN200
     FM300600 32007KT P6SM FEW070
     FM301400 33009KT P6SM SCT040
     FM302100 30009KT P6SM BKN040=



000
FTUS41 KOKX 291900 AAB
TAFJFK
TAF AMD
KJFK 291930Z 2920/3024 29012G19KT P6SM BKN060 OVC200
     FM292100 30010KT P6SM BKN040 OVC150
      TEMPO 2922/3002 5SM -SHRA
     FM300200 32008KT P6SM BKN070 BKN200
     FM301400 33009KT P6SM SCT040
     FM302100 30009KT P6SM BKN040=



000
FTUS41 KOKX 291900 AAA
TAFISP
TAF AMD
KISP 291930Z 2920/3018 30008KT P6SM BKN040 OVC150
      TEMPO 2923/3003 5SM -SHRA
     FM300300 33005KT P6SM BKN070 BKN200
     FM301400 33009KT P6SM SCT040=



000
FTUS41 KOKX 291900 AAA
TAFTEB
TAF AMD
KTEB 291930Z 2920/3018 30012G18KT P6SM BKN040 OVC050
     FM292100 30008KT P6SM BKN040 OVC150
      TEMPO 2921/3001 5SM -SHRA
     FM300100 32005KT P6SM BKN070 BKN200
     FM301400 33007KT P6SM SCT040=



000
FTUS41 KOKX 291900 AAA
TAFEWR
TAF AMD
KEWR 291930Z 2920/3024 28012G19KT P6SM FEW040 BKN080 BKN200
     FM292100 30010KT P6SM BKN040 OVC150
      TEMPO 2921/3001 5SM -SHRA
     FM300100 32005KT P6SM BKN070 BKN200
     FM301400 33007KT P6SM SCT040
     FM302100 30009KT P6SM BKN040=



000
FTUS41 KOKX 291900 AAA
TAFGON
TAF AMD
KGON 291930Z 2920/3018 26010KT P6SM BKN060 OVC200
     FM292300 30008KT P6SM BKN040 OVC150
      TEMPO 3000/3004 5SM -SHRA
     FM300400 33005KT P6SM BKN070 BKN200
     FM301400 32008KT P6SM SCT040=



000
FTUS41 KOKX 291900 AAB
TAFLGA
TAF AMD
KLGA 291930Z 2920/3018 32012G18KT P6SM BKN060 OVC200
     FM292100 32010KT P6SM BKN040 OVC150
      TEMPO 2922/3002 5SM -SHRA
     FM300200 30007KT P6SM BKN070 BKN200
     FM301400 33009KT P6SM SCT040=



000
FTUS41 KOKX 291900 AAA
TAFSWF
TAF AMD
KSWF 291930Z 2920/3024 30015G20KT P6SM BKN060 BKN200
     FM292100 30010KT P6SM BKN040 OVC150
      TEMPO 2921/2924 5SM -SHRA
     FM300000 30005KT P6SM BKN070 BKN200
     FM301400 31008KT P6SM SCT040
     FM302100 33009KT P6SM BKN040
      AMD NOT SKED=



000
FTUS41 KOKX 291900 AAA
TAFBDR
TAF AMD
KBDR 291930Z 2920/3018 25008KT P6SM FEW060 BKN200
     FM292000 28010KT P6SM BKN060 OVC200
     FM292200 30008KT P6SM BKN040 OVC150
      TEMPO 2923/3003 5SM -SHRA
     FM300300 32005KT P6SM BKN070 BKN200
     FM301400 33008KT P6SM SCT040=



000
FTUS41 KOKX 291800 AAA
TAFJFK
TAF AMD
KJFK 291801Z 2918/3024 26012G19KT P6SM BKN060 OVC200
     FM292100 30010KT P6SM BKN040 OVC150
      TEMPO 2922/3002 5SM -SHRA
     FM300200 32008KT P6SM BKN070 BKN200
     FM301400 33009KT P6SM SCT040
     FM302100 30009KT P6SM BKN040=



000
FTUS41 KOKX 291800 AAA
TAFLGA
TAF AMD
KLGA 291801Z 2918/3018 29012G18KT P6SM BKN060 OVC200
     FM292100 30010KT P6SM BKN040 OVC150
      TEMPO 2922/3002 5SM -SHRA
     FM300200 30007KT P6SM BKN070 BKN200
     FM301400 33009KT P6SM SCT040=



000
FTUS41 KOKX 291700
TAFSWF
TAF
KSWF 291729Z 2918/3024 30015G20KT P6SM BKN060 BKN200
     FM292000 30010KT P6SM BKN040 OVC150
      TEMPO 2920/2924 5SM -SHRA
     FM300000 30005KT P6SM BKN070 BKN200
     FM301400 31008KT P6SM SCT040
     FM302100 33009KT P6SM BKN040
      AMD NOT SKED=



000
FTUS41 KOKX 291700
TAFLGA
TAF
KLGA 291729Z 2918/3018 26008KT P6SM FEW060 BKN200
     FM291900 26012G18KT P6SM BKN060 OVC200
     FM292100 30010KT P6SM BKN040 OVC150
      TEMPO 2922/3002 5SM -SHRA
     FM300200 30007KT P6SM BKN070 BKN200
     FM301400 33009KT P6SM SCT040=



000
FTUS41 KOKX 291700
TAFISP
TAF
KISP 291729Z 2918/3018 22008KT P6SM FEW060 BKN200
     FM292000 26010KT P6SM BKN060 OVC200
     FM292200 30008KT P6SM BKN040 OVC150
      TEMPO 2923/3003 5SM -SHRA
     FM300300 33005KT P6SM BKN070 BKN200
     FM301400 33009KT P6SM SCT040=



000
FTUS41 KOKX 291700
TAFEWR
TAF
KEWR 291729Z 2918/3024 28010G18KT P6SM FEW040 BKN080 BKN200
     FM292100 30010KT P6SM BKN040 OVC150
      TEMPO 2921/3001 5SM -SHRA
     FM300100 32005KT P6SM BKN070 BKN200
     FM301400 33007KT P6SM SCT040
     FM302100 30009KT P6SM BKN040=



000
FTUS41 KOKX 291700
TAFGON
TAF
KGON 291729Z 2918/3018 26010KT P6SM BKN060 OVC200
     FM292300 30008KT P6SM BKN040 OVC150
      TEMPO 3000/3004 5SM -SHRA
     FM300400 33005KT P6SM BKN070 BKN200
     FM301400 32008KT P6SM SCT040=



000
FTUS41 KOKX 291700
TAFJFK
TAF
KJFK 291729Z 2918/3024 22010KT P6SM FEW060 BKN200
     FM291900 26012G19KT P6SM BKN060 OVC200
     FM292100 30010KT P6SM BKN040 OVC150
      TEMPO 2922/3002 5SM -SHRA
     FM300200 32008KT P6SM BKN070 BKN200
     FM301400 33009KT P6SM SCT040
     FM302100 30009KT P6SM BKN040=



000
FTUS41 KOKX 291700
TAFTEB
TAF
KTEB 291729Z 2918/3018 26007KT P6SM FEW040 BKN080 BKN200
     FM292100 30008KT P6SM BKN040 OVC150
      TEMPO 2921/3001 5SM -SHRA
     FM300100 32005KT P6SM BKN070 BKN200
     FM301400 33007KT P6SM SCT040=



000
FTUS41 KOKX 291700
TAFBDR
TAF
KBDR 291729Z 2918/3018 25008KT P6SM FEW060 BKN200
     FM292000 28010KT P6SM BKN060 OVC200
     FM292200 30008KT P6SM BKN040 OVC150
      TEMPO 2923/3003 5SM -SHRA
     FM300300 32005KT P6SM BKN070 BKN200
     FM301400 33008KT P6SM SCT040=



000
FTUS41 KOKX 291400 AAA
TAFBDR
TAF AMD
KBDR 291430Z 2915/3012 25007KT P6SM SCT040 BKN200
     FM291900 28010G18KT P6SM VCSH BKN040 BKN200
     FM300200 31005KT P6SM SCT040 SCT250=



000
FTUS41 KOKX 291400 AAA
TAFGON
TAF AMD
KGON 291430Z 2915/3012 24008KT P6SM FEW008 BKN250
     FM292200 28010G17KT P6SM VCSH BKN040 BKN200
     FM300300 32006KT P6SM SCT040 SCT250=



000
FTUS41 KOKX 291400 AAA
TAFSWF
TAF AMD
KSWF 291430Z 2915/3018 26004KT P6SM SCT040 BKN200
     FM291600 27010G15KT P6SM -SHRA BKN040 BKN200
     FM292100 27007KT P6SM SCT040 SCT250
     FM300300 28004KT P6SM SCT040
     FM301500 30008KT P6SM BKN040
      AMD NOT SKED=



000
FTUS41 KOKX 291400 AAA
TAFLGA
TAF AMD
KLGA 291430Z 2915/3012 21006KT P6SM BKN250
     FM291530 26010KT P6SM BKN040 BKN200
     FM291800 28011G20KT P6SM VCSH BKN040 BKN200
     FM300200 30009KT P6SM SCT040 SCT250=



000
FTUS41 KOKX 291400 AAA
TAFJFK
TAF AMD
KJFK 291430Z 2915/3018 21007KT P6SM BKN250
     FM291530 26010KT P6SM BKN040 BKN200
     FM291800 28012G20KT P6SM VCSH BKN040 BKN200
     FM300200 31009KT P6SM SCT040 SCT250
     FM301400 32011KT P6SM SCT040=



000
FTUS41 KOKX 291400 AAA
TAFTEB
TAF AMD
KTEB 291430Z 2915/3012 VRB03KT P6SM BKN250
     FM291530 28008KT P6SM BKN040 BKN200
     FM291800 29010G18KT P6SM VCSH BKN040 BKN200
     FM300100 30008KT P6SM SCT040 SCT250=



000
FTUS41 KOKX 291400 AAA
TAFEWR
TAF AMD
KEWR 291430Z 2915/3018 24005KT P6SM BKN250
     FM291530 27010KT P6SM BKN040 BKN200
     FM291800 29012G20KT P6SM VCSH BKN040 BKN200
     FM300100 30008KT P6SM SCT040 SCT250
     FM301400 32010KT P6SM SCT040=



000
FTUS41 KOKX 291400 AAA
TAFISP
TAF AMD
KISP 291430Z 2915/3012 24009KT P6SM SCT040 BKN200
     FM291600 27011KT P6SM BKN040 BKN200
     FM292000 28012G19KT P6SM VCSH BKN040 BKN200
     FM300200 31007KT P6SM SCT040 SCT250=



000
FTUS41 KOKX 291100
TAFGON
TAF
KGON 291121Z 2912/3012 21005KT P6SM BKN250
     FM291400 24008KT P6SM FEW008 BKN250
     FM292200 28010G17KT P6SM VCSH BKN040 BKN200
     FM300300 32006KT P6SM SCT040 SCT250=



000
FTUS41 KOKX 291100
TAFSWF
TAF
KSWF 291121Z 2912/3018 26004KT P6SM SCT040 BKN200
     FM291600 27010G15KT P6SM -SHRA BKN040 BKN200
     FM292100 27007KT P6SM SCT040 SCT250
     FM300300 28004KT P6SM SCT040
     FM301500 30008KT P6SM BKN040
      AMD NOT SKED=



000
FTUS41 KOKX 291100
TAFTEB
TAF
KTEB 291121Z 2912/3012 VRB03KT P6SM BKN250
     FM291500 28008KT P6SM BKN040 BKN200
     FM291800 29010G18KT P6SM VCSH BKN040 BKN200
     FM300100 30008KT P6SM SCT040 SCT250=



000
FTUS41 KOKX 291100
TAFEWR
TAF
KEWR 291121Z 2912/3018 24005KT P6SM BKN250
     FM291500 27010KT P6SM BKN040 BKN200
     FM291800 29012G20KT P6SM VCSH BKN040 BKN200
     FM300100 30008KT P6SM SCT040 SCT250
     FM301400 32010KT P6SM SCT040=



000
FTUS41 KOKX 291100
TAFISP
TAF
KISP 291121Z 2912/3012 21009KT P6SM BKN250
     FM291400 24009KT P6SM SCT040 BKN200
     FM291600 27011KT P6SM BKN040 BKN200
     FM292000 28012G19KT P6SM VCSH BKN040 BKN200
     FM300200 31007KT P6SM SCT040 SCT250=



000
FTUS41 KOKX 291100
TAFJFK
TAF
KJFK 291121Z 2912/3018 21007KT P6SM BKN250
     FM291500 26010KT P6SM BKN040 BKN200
     FM291800 28012G20KT P6SM VCSH BKN040 BKN200
     FM300200 31009KT P6SM SCT040 SCT250
     FM301400 32011KT P6SM SCT040=



000
FTUS41 KOKX 291100
TAFLGA
TAF
KLGA 291121Z 2912/3012 21006KT P6SM BKN250
     FM291500 26010KT P6SM BKN040 BKN200
     FM291800 28011G20KT P6SM VCSH BKN040 BKN200
     FM300200 30009KT P6SM SCT040 SCT250=



000
FTUS41 KOKX 291100
TAFBDR
TAF
KBDR 291121Z 2912/3012 20005KT P6SM BKN250
      TEMPO 2912/2913 5SM BR
     FM291400 25007KT P6SM SCT040 BKN200
     FM291900 28010G18KT P6SM VCSH BKN040 BKN200
     FM300200 31005KT P6SM SCT040 SCT250=



000
FTUS41 KOKX 290900 AAC
TAFBDR
TAF AMD
KBDR 290929Z 2909/3006 20005KT 5SM BR SCT008 BKN250
      TEMPO 2909/2912 1 1/2SM BR
     FM291400 25007KT P6SM SCT040 BKN200
     FM291900 28010G18KT P6SM VCSH BKN040 BKN200
     FM300200 31005KT P6SM SCT040 SCT250=



000
FTUS41 KOKX 290800 AAA
TAFISP
TAF AMD
KISP 290837Z 2909/3006 21009KT 6SM BR SCT008 BKN250
     FM291400 24009KT P6SM SCT040 BKN200
     FM291600 27011KT P6SM BKN040 BKN200
     FM292000 28012G19KT P6SM VCSH BKN040 BKN200
     FM300200 31007KT P6SM SCT040 SCT250=



000
FTUS41 KOKX 290800 AAA
TAFEWR
TAF AMD
KEWR 290837Z 2909/3012 24005KT P6SM SCT008 BKN250
     FM291500 27010KT P6SM BKN040 BKN200
     FM291800 29012G20KT P6SM VCSH BKN040 BKN200
     FM300100 30008KT P6SM SCT040 SCT250=



000
FTUS41 KOKX 290800 AAA
TAFJFK
TAF AMD
KJFK 290837Z 2909/3012 20007KT P6SM SCT008 BKN250
     FM291500 26010KT P6SM BKN040 BKN200
     FM291800 28012G20KT P6SM VCSH BKN040 BKN200
     FM300200 31009KT P6SM SCT040 SCT250=



000
FTUS41 KOKX 290800 AAA
TAFLGA
TAF AMD
KLGA 290837Z 2909/3006 21006KT P6SM SCT008 BKN250
     FM291500 26010KT P6SM BKN040 BKN200
     FM291800 28011G20KT P6SM VCSH BKN040 BKN200
     FM300200 30009KT P6SM SCT040 SCT250=



000
FTUS41 KOKX 290800 AAA
TAFGON
TAF AMD
KGON 290837Z 2909/3006 21005KT 4SM BR SCT008 BKN250
     FM291400 24008KT P6SM FEW008 BKN250
     FM292200 28010G17KT P6SM VCSH BKN040 BKN200
     FM300300 32006KT P6SM SCT040 SCT250=



000
FTUS41 KOKX 290800 AAB
TAFBDR
TAF AMD
KBDR 290837Z 2909/3006 20005KT 5SM BR SCT008 BKN250
     FM291400 25007KT P6SM SCT040 BKN200
     FM291900 28010G18KT P6SM VCSH BKN040 BKN200
     FM300200 31005KT P6SM SCT040 SCT250=



000
FTUS41 KOKX 290800 AAA
TAFTEB
TAF AMD
KTEB 290837Z 2909/3006 VRB03KT 6SM BR SCT008 BKN250
     FM291500 28008KT P6SM BKN040 BKN200
     FM291800 29010G18KT P6SM VCSH BKN040 BKN200
     FM300100 30008KT P6SM SCT040 SCT250=



000
FTUS41 KOKX 290800 AAA
TAFSWF
TAF AMD
KSWF 290837Z 2909/3012 26004KT P6SM SCT008 SCT040 BKN200
      TEMPO 2909/2912 5SM BR
     FM291600 27010G15KT P6SM -SHRA BKN040 BKN200
     FM292100 27007KT P6SM SCT040 SCT250
     FM300300 28004KT P6SM SCT040
      AMD NOT SKED=



000
FTUS41 KOKX 290600 AAA
TAFBDR
TAF AMD
KBDR 290615Z 2906/3006 20005KT 5SM BR SCT008 BKN250
     FM291400 25007KT P6SM SCT040 BKN200
     FM291900 28010G18KT P6SM VCSH BKN040 BKN200
     FM300200 31005KT P6SM SCT040 SCT250=



000
FTUS41 KOKX 290500
TAFJFK
TAF
KJFK 290523Z 2906/3012 19006KT P6SM BKN250
     FM290900 21007KT 6SM BR SCT008 BKN250
     FM291500 26010KT P6SM BKN040 BKN200
     FM291800 28012G20KT P6SM VCSH BKN040 BKN200
     FM300200 31009KT P6SM SCT040 SCT250=



000
FTUS41 KOKX 290500
TAFEWR
TAF
KEWR 290523Z 2906/3012 22005KT P6SM BKN250
     FM290900 24005KT 6SM BR SCT008 BKN250
     FM291500 27010KT P6SM BKN040 BKN200
     FM291800 29012G20KT P6SM VCSH BKN040 BKN200
     FM300100 30008KT P6SM SCT040 SCT250=



000
FTUS41 KOKX 290500
TAFSWF
TAF
KSWF 290523Z 2906/3012 VRB01KT P6SM BKN250
     FM290900 26004KT 5SM BR SCT008 SCT040 BKN200
     FM291600 27010G15KT P6SM -SHRA BKN040 BKN200
     FM292100 27007KT P6SM SCT040 SCT250
     FM300300 28004KT P6SM SCT040
      AMD NOT SKED=



000
FTUS41 KOKX 290500
TAFLGA
TAF
KLGA 290523Z 2906/3006 19006KT P6SM BKN250
     FM290900 21006KT 6SM BR SCT008 BKN250
     FM291500 26010KT P6SM BKN040 BKN200
     FM291800 28011G20KT P6SM VCSH BKN040 BKN200
     FM300200 30009KT P6SM SCT040 SCT250=



000
FTUS41 KOKX 290500
TAFISP
TAF
KISP 290523Z 2906/3006 21006KT P6SM BKN250
     FM290900 21006KT 5SM BR SCT008 BKN250
     FM291400 24009KT P6SM SCT040 BKN200
     FM291600 27011KT P6SM BKN040 BKN200
     FM292000 28012G19KT P6SM VCSH BKN040 BKN200
     FM300200 31007KT P6SM SCT040 SCT250=



000
FTUS41 KOKX 290500
TAFGON
TAF
KGON 290523Z 2906/3006 21005KT 4SM BR SCT008 BKN250
     FM291400 24008KT P6SM FEW008 BKN250
     FM292200 28010G17KT P6SM VCSH BKN040 BKN200
     FM300300 32006KT P6SM SCT040 SCT250=



000
FTUS41 KOKX 290500
TAFBDR
TAF
KBDR 290523Z 2906/3006 VRB02KT P6SM BKN250
     FM290800 20005KT 5SM BR SCT008 BKN250
     FM291400 25007KT P6SM SCT040 BKN200
     FM291900 28010G18KT P6SM VCSH BKN040 BKN200
     FM300200 31005KT P6SM SCT040 SCT250=



000
FTUS41 KOKX 290500
TAFTEB
TAF
KTEB 290523Z 2906/3006 VRB01KT P6SM BKN250
     FM290900 VRB03KT 6SM BR SCT008 BKN250
     FM291500 28008KT P6SM BKN040 BKN200
     FM291800 29010G18KT P6SM VCSH BKN040 BKN200
     FM300100 30008KT P6SM SCT040 SCT250=



000
FTUS41 KOKX 290200 AAA
TAFBDR
TAF AMD
KBDR 290231Z 2903/2924 VRB04KT P6SM BKN250
     FM290900 20005KT 5SM BR SCT015 BKN250
     FM291400 24007KT P6SM SCT015 SCT040 BKN200
     FM291600 25008KT P6SM BKN040
     FM292000 28008KT P6SM VCSH OVC040
     FM292200 25007KT P6SM SCT040 BKN090=



000
FTUS41 KOKX 290200 AAA
TAFEWR
TAF AMD
KEWR 290231Z 2903/3006 22005KT P6SM BKN250
     FM290900 24005KT 6SM BR SCT015 BKN250
     FM291500 25007KT P6SM BKN040
     FM291800 29010G20KT P6SM VCSH OVC040
     FM292000 26009KT P6SM SCT040 BKN090
     FM300400 32006KT P6SM SCT050=



000
FTUS41 KOKX 290200 AAA
TAFTEB
TAF AMD
KTEB 290231Z 2903/2924 VRB03KT P6SM BKN250
     FM290900 VRB03KT 6SM BR SCT015 BKN250
     FM291500 26006KT P6SM BKN040
     FM291800 29009G18KT P6SM VCSH OVC040
     FM292000 26008KT P6SM SCT040 BKN090=



000
FTUS41 KOKX 290200 AAA
TAFLGA
TAF AMD
KLGA 290231Z 2903/2924 21006KT P6SM BKN250
     FM290900 21006KT 6SM BR SCT015 BKN250
     FM291500 25009KT P6SM BKN040
     FM291800 29010G19KT P6SM VCSH OVC040
     FM292000 26009KT P6SM SCT040 BKN090=



000
FTUS41 KOKX 290200 AAA
TAFGON
TAF AMD
KGON 290231Z 2903/2924 20005KT 6SM BR BKN250
     FM290400 21004KT 4SM BR SCT008 BKN250
     FM291400 23008KT 6SM HZ SCT015 BKN250
     FM292200 28009KT P6SM BKN040 BKN090=



000
FTUS41 KOKX 290200 AAA
TAFJFK
TAF AMD
KJFK 290231Z 2903/3006 20008KT P6SM BKN250
     FM290900 21007KT 6SM BR SCT015 BKN250
     FM291500 24009KT P6SM BKN040
     FM291800 29010G20KT P6SM VCSH OVC040
     FM292000 26010KT P6SM SCT040 BKN090
     FM300400 32009KT P6SM SCT050=



000
FTUS41 KOKX 290200 AAA
TAFISP
TAF AMD
KISP 290231Z 2903/2924 20005KT P6SM BKN250
     FM290900 21006KT 5SM BR SCT015 BKN250
     FM291400 23009KT P6SM SCT015 SCT040 BKN200
     FM291600 25010KT P6SM BKN040
     FM292000 29010G19KT P6SM VCSH OVC040
     FM292200 26009KT P6SM SCT040 BKN090=



000
FTUS41 KOKX 282300
TAFEWR
TAF
KEWR 282326Z 2900/3006 22005KT P6SM BKN250
     FM290900 24005KT 6SM BR SCT015 BKN250
     FM291500 25007KT P6SM BKN040
     FM291800 29010G20KT P6SM VCSH OVC040
     FM292000 26009KT P6SM SCT040 BKN090
     FM300400 32006KT P6SM SCT050=



000
FTUS41 KOKX 282300
TAFLGA
TAF
KLGA 282326Z 2900/2924 18006KT P6SM BKN250
     FM290400 21006KT P6SM BKN250
     FM290900 21006KT 6SM BR SCT015 BKN250
     FM291500 25009KT P6SM BKN040
     FM291800 29010G19KT P6SM VCSH OVC040
     FM292000 26009KT P6SM SCT040 BKN090=



000
FTUS41 KOKX 282300
TAFSWF
TAF
KSWF 282326Z 2900/3006 VRB03KT P6SM BKN250
     FM290900 26004KT 5SM BR SCT015 SCT035 BKN250
     FM291500 28006KT 5SM -SHRA BR SCT015 OVC030
     FM291800 26010G18KT P6SM SCT035 BKN060
     FM292000 26007KT P6SM SCT040 BKN080
     FM300300 30005KT P6SM SCT040
      AMD NOT SKED=



000
FTUS41 KOKX 282300
TAFTEB
TAF
KTEB 282326Z 2900/2924 VRB03KT P6SM BKN250
     FM290900 VRB03KT 6SM BR SCT015 BKN250
     FM291500 26006KT P6SM BKN040
     FM291800 29009G18KT P6SM VCSH OVC040
     FM292000 26008KT P6SM SCT040 BKN090=



000
FTUS41 KOKX 282300
TAFBDR
TAF
KBDR 282326Z 2900/2924 VRB04KT P6SM BKN250
     FM290900 20005KT 5SM BR SCT015 BKN250
     FM291400 24007KT P6SM SCT015 SCT040 BKN200
     FM291600 25008KT P6SM BKN040
     FM292000 28008KT P6SM VCSH OVC040
     FM292200 25007KT P6SM SCT040 BKN090=



000
FTUS41 KOKX 282300
TAFISP
TAF
KISP 282326Z 2900/2924 20005KT P6SM BKN250
     FM290900 21006KT 5SM BR SCT015 BKN250
     FM291400 23009KT P6SM SCT015 SCT040 BKN200
     FM291600 25010KT P6SM BKN040
     FM292000 29010G19KT P6SM VCSH OVC040
     FM292200 26009KT P6SM SCT040 BKN090=



000
FTUS41 KOKX 282300
TAFGON
TAF
KGON 282326Z 2900/2924 20005KT 6SM BR BKN250
     FM290400 21004KT 4SM BR SCT008 BKN250
     FM291400 23008KT 6SM HZ SCT015 BKN250
     FM292200 28009KT P6SM BKN040 BKN090=



000
FTUS41 KOKX 282300
TAFJFK
TAF
KJFK 282326Z 2900/3006 18009KT P6SM BKN250
     FM290400 20008KT P6SM BKN250
     FM290900 21007KT 6SM BR SCT015 BKN250
     FM291500 24009KT P6SM BKN040
     FM291800 29010G20KT P6SM VCSH OVC040
     FM292000 26010KT P6SM SCT040 BKN090
     FM300400 32009KT P6SM SCT050=



000
FTUS41 KOKX 281900 AAA
TAFISP
TAF AMD
KISP 281945Z 2820/2918 21009KT P6SM FEW120 BKN250
     FM282200 20005KT P6SM FEW120 BKN250
     FM290900 22005KT 5SM BR SCT015 SCT250
     FM291500 23010KT P6SM SCT015 SCT040 BKN200=



000
FTUS41 KOKX 281900 AAA
TAFJFK
TAF AMD
KJFK 281945Z 2820/2924 16008KT P6SM FEW150 BKN250
     FM290200 18006KT P6SM FEW150 BKN250
     FM290900 21007KT 5SM BR SCT015 BKN250
     FM291500 24009KT P6SM BKN040
     FM291800 29010G20KT P6SM VCSH OVC040
     FM292000 25012G17KT P6SM BKN090=



000
FTUS41 KOKX 281900 AAA
TAFGON
TAF AMD
KGON 281945Z 2820/2918 20009KT P6SM BKN250
     FM282100 20007KT P6SM FEW150 BKN250
     FM290200 20007KT 6SM BR FEW008 BKN250
     FM290800 20006KT 5SM BR SCT008 BKN250
     FM291500 23008KT 6SM BR SCT015 BKN250=



000
FTUS41 KOKX 281900 AAA
TAFEWR
TAF AMD
KEWR 281945Z 2820/2924 18006KT P6SM FEW150 BKN250
     FM282200 16005KT P6SM FEW150 BKN250
     FM290100 22006KT P6SM SCT250
     FM290900 24005KT 5SM BR SCT015 SCT250
     FM291500 25007KT P6SM BKN040
     FM291800 29010G20KT P6SM VCSH OVC040
     FM292000 25012G17KT P6SM BKN090=



000
FTUS41 KOKX 281900 AAA
TAFLGA
TAF AMD
KLGA 281945Z 2820/2918 16008KT P6SM FEW150 BKN250
     FM290200 18006KT P6SM FEW150 BKN250
     FM290900 21006KT 5SM BR SCT015 BKN250
     FM291500 25009KT P6SM BKN040=



000
FTUS41 KOKX 281900 AAA
TAFBDR
TAF AMD
KBDR 281945Z 2820/2918 21005KT P6SM FEW150 BKN250
     FM290900 19005KT 5SM BR SCT015 SCT250
     FM291200 24005KT 5SM BR SCT015 SCT250
     FM291600 23008KT P6SM SCT015 BKN040=



000
FTUS41 KOKX 281900 AAA
TAFTEB
TAF AMD
KTEB 281945Z 2820/2918 18005KT P6SM FEW150 BKN250
     FM282200 16005KT P6SM FEW150 BKN250
     FM290000 VRB03KT P6SM FEW150 BKN250
     FM290900 VRB03KT 5SM BR SCT015 SCT250
     FM291500 26006KT P6SM BKN040=



000
FTUS41 KOKX 281700 RRA
TAFGON
TAF
KGON 281747Z 2818/2918 21009KT P6SM FEW025 BKN250
     FM282100 20007KT P6SM SCT250
     FM290200 20007KT 6SM BR FEW008 SCT250
     FM290800 20006KT 5SM BR SCT008 SCT250
     FM291500 23008KT 6SM BR SCT015 SCT250=



000
FTUS41 KOKX 281700 RRA
TAFSWF
TAF
KSWF 281744Z 2818/2924 22005KT P6SM SCT250
     FM282300 VRB03KT P6SM SCT250
     FM290900 27004KT 5SM BR SCT250
     FM291100 27005KT 5SM BR BKN070
     FM291500 27006KT 5SM -RA BR SCT015 OVC025
     FM291800 27010G18KT P6SM BKN060
     FM292000 25007KT P6SM BKN100
     FM292200 27008KT P6SM SKC
      AMD NOT SKED=



000
FTUS41 KOKX 281700
TAFLGA
TAF
KLGA 281740Z 2818/2918 23006KT P6SM SCT250
     FM282100 18008KT P6SM SCT250
     FM290100 20006KT P6SM SCT250
     FM290900 22006KT 5SM BR SCT015 SCT250
     FM291500 25009KT P6SM BKN040=



000
FTUS41 KOKX 281700
TAFTEB
TAF
KTEB 281740Z 2818/2918 21007KT P6SM SCT250
     FM282000 19007KT P6SM SCT250
     FM282200 16005KT P6SM SCT250
     FM290000 VRB03KT P6SM SCT250
     FM290900 VRB03KT 5SM BR SCT015 SCT250
     FM291500 26006KT P6SM BKN040=



000
FTUS41 KOKX 281700
TAFEWR
TAF
KEWR 281740Z 2818/2924 24006KT P6SM SCT250
     FM282000 20008KT P6SM SCT250
     FM282200 15005KT P6SM SCT250
     FM290100 22006KT P6SM SCT250
     FM290900 24005KT 5SM BR SCT015 SCT250
     FM291500 25007KT P6SM BKN040
     FM291800 29010G20KT P6SM VCSH OVC040
     FM292000 25012G17KT P6SM BKN090=



000
FTUS41 KOKX 281700
TAFBDR
TAF
KBDR 281740Z 2818/2918 25007KT P6SM SCT250
     FM282000 21008KT P6SM SCT250
     FM282300 20004KT P6SM SCT250
     FM290900 19005KT 5SM BR SCT015 SCT250
     FM291200 24005KT 5SM BR SCT015 SCT250
     FM291600 23008KT P6SM SCT015 BKN040=



000
FTUS41 KOKX 281700
TAFISP
TAF
KISP 281740Z 2818/2918 21010KT P6SM FEW015 SCT250
     FM282200 20006KT P6SM FEW015 SCT250
     FM290900 22006KT 5SM BR SCT015 SCT250
     FM291500 23010KT P6SM SCT015 SCT040 BKN200=



000
FTUS41 KOKX 281700
TAFJFK
TAF
KJFK 281740Z 2818/2924 20005KT P6SM SCT250
     FM282000 18008KT P6SM SCT250
     FM290200 20007KT P6SM SCT250
     FM290900 22008KT 5SM BR SCT015 SCT250
     FM291500 24009KT P6SM BKN040
     FM291800 29010G20KT P6SM VCSH OVC040
     FM292000 25012G17KT P6SM BKN090=



000
FTUS41 KOKX 281400 AAA
TAFJFK
TAF AMD
KJFK 281438Z 2815/2918 22009KT P6SM FEW120 SCT250
     FM281800 19011KT P6SM SCT250
     FM290200 20008KT P6SM SCT250
     FM291400 23009KT P6SM BKN150=



000
FTUS41 KOKX 281400 AAA
TAFLGA
TAF AMD
KLGA 281438Z 2815/2912 22010KT P6SM FEW120 SCT250
     FM282000 18010KT P6SM SCT250
     FM290100 20007KT P6SM SCT250=



000
FTUS41 KOKX 281400 AAA
TAFISP
TAF AMD
KISP 281438Z 2815/2912 21010G16KT P6SM FEW015 SCT250
     FM281700 21010KT P6SM SCT250
     FM282200 20006KT P6SM SCT250=



000
FTUS41 KOKX 281400 AAA
TAFBDR
TAF AMD
KBDR 281438Z 2815/2912 22006KT P6SM SCT250
     FM281800 19008KT P6SM SCT250
     FM290100 19005KT P6SM SCT250=



000
FTUS41 KOKX 281400 AAA
TAFTEB
TAF AMD
KTEB 281438Z 2815/2912 21007KT P6SM SCT250
     FM282200 16007KT P6SM SCT250
     FM290000 VRB03KT P6SM SCT250=



000
FTUS41 KOKX 281400 AAA
TAFEWR
TAF AMD
KEWR 281438Z 2815/2918 24008KT P6SM FEW120 SCT250
     FM281800 21010KT P6SM SCT250
     FM282100 16008KT P6SM SCT250
     FM290200 20005KT P6SM SCT250
     FM291400 25007KT P6SM BKN150=



000
FTUS41 KOKX 281400 AAA
TAFGON
TAF AMD
KGON 281438Z 2815/2912 21009KT P6SM FEW080 SCT250
     FM282200 20006KT P6SM SCT250=



000
FTUS41 KOKX 281100
TAFTEB
TAF
KTEB 281120Z 2812/2912 VRB03KT P6SM SCT250
     FM281600 20007KT P6SM SCT250
     FM282200 17007KT P6SM SCT250
     FM290000 VRB04KT P6SM SCT250=



000
FTUS41 KOKX 281100
TAFEWR
TAF
KEWR 281120Z 2812/2918 VRB04KT P6SM SCT250
     FM281500 21009KT P6SM SCT250
     FM282100 16008KT P6SM SCT250
     FM290200 VRB05KT P6SM SCT250
     FM291400 25007KT P6SM BKN150=



000
FTUS41 KOKX 281100
TAFBDR
TAF
KBDR 281120Z 2812/2912 VRB03KT P6SM SCT250
     FM281500 20008KT P6SM SCT250
     FM290300 VRB05KT P6SM SCT250=



000
FTUS41 KOKX 281100
TAFLGA
TAF
KLGA 281120Z 2812/2912 VRB05KT P6SM SCT250
     FM281300 20008KT P6SM SCT250
     FM282100 18008KT P6SM SCT250
     FM290200 20007KT P6SM SCT250=



000
FTUS41 KOKX 281100
TAFISP
TAF
KISP 281120Z 2812/2912 VRB03KT P6SM SCT250
     FM281400 21010KT P6SM SCT250
     FM282100 19008KT P6SM SCT250=



000
FTUS41 KOKX 281100
TAFJFK
TAF
KJFK 281120Z 2812/2918 20009KT P6SM SCT250
     FM282000 18010KT P6SM SCT250
     FM290300 20008KT P6SM SCT250
     FM291400 23009KT P6SM BKN150=



000
FTUS41 KOKX 281100
TAFGON
TAF
KGON 281120Z 2812/2912 VRB03KT P6SM SCT250
     FM281400 21008KT P6SM SCT250
     FM290800 VRB05KT P6SM SCT250=



000
FTUS41 KOKX 281100
TAFSWF
TAF
KSWF 281120Z 2812/2918 VRB03KT P6SM SCT250
     FM281500 23006KT P6SM SCT250
     FM282100 VRB03KT P6SM SCT250
      AMD NOT SKED=



000
FTUS41 KOKX 280800 AAA
TAFJFK
TAF AMD
KJFK 280846Z 2809/2912 VRB04KT P6SM SCT250
     FM281200 20009KT P6SM SCT250
     FM282000 18010KT P6SM SCT250
     FM290300 20008KT P6SM SCT250=



000
FTUS41 KOKX 280800 AAA
TAFGON
TAF AMD
KGON 280846Z 2809/2906 VRB03KT P6SM SCT250
     FM281400 20007KT P6SM SCT250=



000
FTUS41 KOKX 280800 AAA
TAFBDR
TAF AMD
KBDR 280846Z 2809/2906 00000KT P6SM SCT250
     FM281100 VRB03KT P6SM SCT250
     FM281600 20008KT P6SM SCT250
     FM290300 VRB05KT P6SM SCT250=



000
FTUS41 KOKX 280800 AAA
TAFISP
TAF AMD
KISP 280846Z 2809/2906 00000KT P6SM SCT250
     FM281100 VRB03KT P6SM SCT250
     FM281300 21010KT P6SM SCT250
     FM282100 19008KT P6SM SCT250=



000
FTUS41 KOKX 280800 AAA
TAFEWR
TAF AMD
KEWR 280846Z 2809/2912 VRB03KT P6SM SCT250
     FM281500 21008KT P6SM SCT250
     FM282100 15008KT P6SM SCT250
     FM290200 VRB05KT P6SM SCT250=



000
FTUS41 KOKX 280800 AAA
TAFTEB
TAF AMD
KTEB 280846Z 2809/2906 00000KT P6SM SCT250
     FM281300 VRB03KT P6SM SCT250
     FM281700 20007KT P6SM SCT250
     FM282200 15007KT P6SM SCT250
     FM290000 VRB04KT P6SM SCT250=



000
FTUS41 KOKX 280800 AAA
TAFLGA
TAF AMD
KLGA 280846Z 2809/2906 VRB04KT P6SM SCT250
     FM281400 20008KT P6SM SCT250
     FM282200 18008KT P6SM SCT250
     FM290200 21007KT P6SM SCT250=



000
FTUS41 KOKX 280500
TAFGON
TAF
KGON 280520Z 2806/2906 VRB03KT P6SM SCT250
     FM281300 20007KT P6SM SCT250=



000
FTUS41 KOKX 280500
TAFSWF
TAF
KSWF 280520Z 2806/2912 00000KT P6SM SCT250
     FM281200 VRB03KT P6SM SCT250
     FM281600 23006KT P6SM SCT250
     FM282200 VRB03KT P6SM SCT250
      AMD NOT SKED=



000
FTUS41 KOKX 280500
TAFISP
TAF
KISP 280520Z 2806/2906 00000KT P6SM SCT250
     FM281000 VRB03KT P6SM SCT250
     FM281300 21010KT P6SM SCT250
     FM282100 19008KT P6SM SCT250=



000
FTUS41 KOKX 280500
TAFJFK
TAF
KJFK 280520Z 2806/2912 VRB04KT P6SM SCT250
     FM281100 20009KT P6SM SCT250
     FM282000 18010KT P6SM SCT250
     FM290300 20008KT P6SM SCT250=



000
FTUS41 KOKX 280500
TAFEWR
TAF
KEWR 280520Z 2806/2912 VRB03KT P6SM SCT250
     FM281400 21008KT P6SM SCT250
     FM282100 15008KT P6SM SCT250
     FM290200 VRB05KT P6SM SCT250=



000
FTUS41 KOKX 280500
TAFTEB
TAF
KTEB 280520Z 2806/2906 00000KT P6SM SCT250
     FM281300 VRB03KT P6SM SCT250
     FM281600 20007KT P6SM SCT250
     FM282200 15007KT P6SM SCT250
     FM290000 VRB04KT P6SM SCT250=



000
FTUS41 KOKX 280500
TAFLGA
TAF
KLGA 280520Z 2806/2906 VRB04KT P6SM SCT250
     FM281300 20008KT P6SM SCT250
     FM282200 18008KT P6SM SCT250
     FM290200 21007KT P6SM SCT250=



000
FTUS41 KOKX 280500
TAFBDR
TAF
KBDR 280520Z 2806/2906 00000KT P6SM SCT250
     FM281000 VRB03KT P6SM SCT250
     FM281500 20008KT P6SM SCT250
     FM290300 VRB05KT P6SM SCT250=



000
FTUS41 KOKX 280200 AAA
TAFSWF
TAF AMD
KSWF 280231Z 2803/2906 00000KT P6SM FEW250
     FM281500 20005KT P6SM SCT250
     FM290000 00000KT P6SM SCT250
      AMD NOT SKED=



000
FTUS41 KOKX 280200 AAA
TAFISP
TAF AMD
KISP 280231Z 2803/2824 VRB03KT P6SM FEW250
     FM281400 20009KT P6SM SCT250=



000
FTUS41 KOKX 280200 AAA
TAFTEB
TAF AMD
KTEB 280231Z 2803/2824 VRB04KT P6SM FEW250
     FM281400 20007KT P6SM SCT250=



000
FTUS41 KOKX 280200 AAA
TAFEWR
TAF AMD
KEWR 280231Z 2803/2906 22005KT P6SM FEW250
     FM280500 VRB04KT P6SM FEW250
     FM281400 21007KT P6SM SCT250=



000
FTUS41 KOKX 280200 AAA
TAFJFK
TAF AMD
KJFK 280231Z 2803/2906 22006KT P6SM FEW250
     FM280800 VRB05KT P6SM FEW250
     FM281100 19007KT P6SM SCT250
     FM281400 20012KT P6SM SCT250
     FM282300 20007KT P6SM SCT250=



000
FTUS41 KOKX 280200 AAA
TAFLGA
TAF AMD
KLGA 280231Z 2803/2824 22006KT P6SM FEW250
     FM280600 VRB04KT P6SM FEW250
     FM281400 20009KT P6SM SCT250=



000
FTUS41 KOKX 280200 AAA
TAFGON
TAF AMD
KGON 280231Z 2803/2824 VRB03KT P6SM FEW250
     FM281400 20008KT P6SM SCT250=



000
FTUS41 KOKX 280200 AAA
TAFBDR
TAF AMD
KBDR 280231Z 2803/2824 VRB03KT P6SM FEW250
     FM281400 20008KT P6SM SCT250=



000
FTUS41 KOKX 272300
TAFJFK
TAF
KJFK 272322Z 2800/2906 22006KT P6SM SCT250
     FM280800 VRB05KT P6SM FEW250
     FM281100 19007KT P6SM SCT250
     FM281400 20012KT P6SM SCT250
     FM282300 20007KT P6SM SCT250=



000
FTUS41 KOKX 272300
TAFLGA
TAF
KLGA 272322Z 2800/2824 22006KT P6SM SCT250
     FM280600 VRB04KT P6SM FEW250
     FM281400 20009KT P6SM SCT250=



000
FTUS41 KOKX 272300
TAFGON
TAF
KGON 272322Z 2800/2824 VRB03KT P6SM FEW250
     FM281400 20008KT P6SM SCT250=



000
FTUS41 KOKX 272300
TAFEWR
TAF
KEWR 272322Z 2800/2906 23006KT P6SM SCT250
     FM280400 VRB04KT P6SM FEW250
     FM281400 21007KT P6SM SCT250=



000
FTUS41 KOKX 272300
TAFBDR
TAF
KBDR 272322Z 2800/2824 VRB04KT P6SM FEW250
     FM281400 20008KT P6SM SCT250=



000
FTUS41 KOKX 272300
TAFTEB
TAF
KTEB 272322Z 2800/2824 VRB04KT P6SM FEW250
     FM281400 20007KT P6SM SCT250=



000
FTUS41 KOKX 272300
TAFISP
TAF
KISP 272322Z 2800/2824 VRB04KT P6SM FEW250
     FM281400 20009KT P6SM SCT250=



000
FTUS41 KOKX 272300
TAFSWF
TAF
KSWF 272322Z 2800/2906 00000KT P6SM FEW250
     FM281500 20005KT P6SM SCT250
     FM290000 00000KT P6SM SCT250
      AMD NOT SKED=



000
FTUS41 KOKX 272000 AAA
TAFEWR
TAF AMD
KEWR 272034Z 2721/2824 26007KT P6SM SCT250
     FM280000 VRB04KT P6SM FEW250
     FM281300 21006KT P6SM SCT250
     FM282000 18008KT P6SM SCT200=



000
FTUS41 KOKX 272000 AAA
TAFTEB
TAF AMD
KTEB 272034Z 2721/2818 28005KT P6SM SCT250
     FM272300 VRB04KT P6SM FEW250
     FM281400 21007KT P6SM SCT250=



000
FTUS41 KOKX 272000 AAA
TAFLGA
TAF AMD
KLGA 272034Z 2721/2818 27008KT P6SM SCT250
     FM280300 VRB04KT P6SM FEW250
     FM281300 20007KT P6SM SCT250=



000
FTUS41 KOKX 272000 AAA
TAFBDR
TAF AMD
KBDR 272034Z 2721/2818 28006KT P6SM SCT250
     FM280100 VRB04KT P6SM FEW250
     FM281400 20008KT P6SM SCT250=



000
FTUS41 KOKX 272000 AAB
TAFJFK
TAF AMD
KJFK 272034Z 2721/2824 25010KT P6SM SCT250
     FM280000 22005KT P6SM FEW250
     FM280400 VRB05KT P6SM FEW250
     FM281100 19007KT P6SM SCT250
     FM281400 20013KT P6SM SCT200=



000
FTUS41 KOKX 272000 AAA
TAFISP
TAF AMD
KISP 272034Z 2721/2818 29009KT P6SM SCT250
     FM280000 VRB04KT P6SM FEW250
     FM281400 20008KT P6SM SCT250=



000
FTUS41 KOKX 272000 AAA
TAFGON
TAF AMD
KGON 272034Z 2721/2818 30010KT P6SM FEW250
     FM280200 29005KT P6SM FEW250
     FM280600 VRB03KT P6SM FEW250
     FM281400 21009G15KT P6SM SCT250=



000
FTUS41 KOKX 271900 AAA
TAFJFK
TAF AMD
KJFK 271918Z 2719/2824 27008KT P6SM FEW250
     FM280400 VRB05KT P6SM FEW250
     FM281100 19007KT P6SM SCT250
     FM281400 20013KT P6SM SCT200=



000
FTUS41 KOKX 271700
TAFLGA
TAF
KLGA 271729Z 2718/2818 31010KT P6SM FEW050
     FM272100 27008KT P6SM FEW250
     FM280300 VRB04KT P6SM FEW250
     FM281300 20007KT P6SM SCT250=



000
FTUS41 KOKX 271700
TAFBDR
TAF
KBDR 271729Z 2718/2818 30010KT P6SM SKC
     FM272100 28007KT P6SM SKC
     FM280100 VRB04KT P6SM FEW250
     FM281400 20008KT P6SM SCT250=



000
FTUS41 KOKX 271700
TAFEWR
TAF
KEWR 271729Z 2718/2824 29007KT P6SM FEW050
     FM280000 VRB04KT P6SM FEW250
     FM281300 21006KT P6SM SCT250
     FM282000 18008KT P6SM SCT200=



000
FTUS41 KOKX 271700
TAFISP
TAF
KISP 271729Z 2718/2818 30009KT P6SM FEW040
     FM280000 VRB04KT P6SM FEW250
     FM281400 20008KT P6SM SCT250=



000
FTUS41 KOKX 271700
TAFSWF
TAF
KSWF 271729Z 2718/2824 30007KT P6SM FEW040
     FM272200 VRB04KT P6SM FEW250
     FM281600 22006KT P6SM FEW250
      AMD NOT SKED=



000
FTUS41 KOKX 271700
TAFTEB
TAF
KTEB 271729Z 2718/2818 31009KT P6SM SKC
     FM272300 VRB04KT P6SM FEW250
     FM281400 21007KT P6SM SCT250=



000
FTUS41 KOKX 271700
TAFJFK
TAF
KJFK 271729Z 2718/2824 30011KT P6SM FEW050
     FM272200 27008KT P6SM FEW250
     FM280400 VRB05KT P6SM FEW250
     FM281100 19007KT P6SM SCT250
     FM281400 20013KT P6SM SCT200=



000
FTUS41 KOKX 271700
TAFGON
TAF
KGON 271729Z 2718/2818 30012G18KT P6SM SKC
     FM280200 29005KT P6SM FEW250
     FM280600 VRB03KT P6SM FEW250
     FM281400 21009G15KT P6SM SCT250=



000
FTUS41 KOKX 271400 AAA
TAFJFK
TAF AMD
KJFK 271422Z 2714/2818 30013KT P6SM SKC
     FM272200 27008KT P6SM SKC
     FM280400 VRB05KT P6SM FEW250
     FM281200 19009KT P6SM SCT250=



000
FTUS41 KOKX 271400 AAA
TAFTEB
TAF AMD
KTEB 271422Z 2714/2812 28008KT P6SM SKC
     FM272300 VRB03KT P6SM FEW250=



000
FTUS41 KOKX 271400 AAA
TAFGON
TAF AMD
KGON 271422Z 2714/2812 30011G18KT P6SM SKC
     FM280000 29005KT P6SM FEW250=



000
FTUS41 KOKX 271400 AAA
TAFBDR
TAF AMD
KBDR 271422Z 2714/2812 28008KT P6SM SKC
     FM272300 VRB03KT P6SM FEW250=



000
FTUS41 KOKX 271400 AAA
TAFISP
TAF AMD
KISP 271422Z 2714/2812 30011KT P6SM SKC
     FM272000 28008KT P6SM SKC
     FM280000 VRB03KT P6SM FEW250=



000
FTUS41 KOKX 271400 AAA
TAFEWR
TAF AMD
KEWR 271422Z 2714/2818 30010KT P6SM SKC
      TEMPO 2714/2716 31010G17KT
     FM272100 26007KT P6SM SKC
     FM280100 VRB04KT P6SM FEW250
     FM281400 22007KT P6SM SCT250=



000
FTUS41 KOKX 271400 AAA
TAFSWF
TAF AMD
KSWF 271422Z 2714/2818 28007KT P6SM SKC
     FM272200 VRB03KT P6SM FEW250
     FM281600 22006KT P6SM FEW250
      AMD NOT SKED=



000
FTUS41 KOKX 271400 AAA
TAFLGA
TAF AMD
KLGA 271422Z 2714/2812 31011KT P6SM SKC
      TEMPO 2714/2716 31011G17KT
     FM272100 27009KT P6SM SKC
     FM280400 VRB04KT P6SM FEW250=



    US Dept of Commerce
    National Oceanic and Atmospheric Administration
    National Weather Service
    1325 East West Highway
    Silver Spring, MD 20910
    Page Author: NWS Internet Services Team
Disclaimer
Information Quality
Credits
Glossary
Privacy Policy
Freedom of Information Act (FOIA)
About Us
Career Opportunities